Time;durP1;ratioP1;P1;durP2;ratioP2;P2;SDS_P1;SDS_P2;PMS_P1;PMS_P2;Temp;Humidity;BMP_temperature;BMP_pressure;BME280_temperature;BME280_humidity;BME280_pressure;Samples;Min_cycle;Max_cycle;Signal;HPM_P1;HPM_P2
2021/11/27 00:00:13;;;;;;;3.65;0.50;;;4.50;99.90;;;;;;6240892;22;20004;-61
2021/11/27 00:02:40;;;;;;;1.30;0.28;;;4.50;99.90;;;;;;6241695;22;20398;-61
2021/11/27 00:05:07;;;;;;;3.92;0.32;;;4.60;99.90;;;;;;6240823;22;20016;-61
2021/11/27 00:07:32;;;;;;;2.63;0.20;;;4.50;99.90;;;;;;6241575;22;20349;-63
2021/11/27 00:09:58;;;;;;;8.57;0.70;;;4.50;99.90;;;;;;6240474;22;20039;-62
2021/11/27 00:12:24;;;;;;;4.70;0.20;;;4.50;99.90;;;;;;6241705;22;20088;-63
2021/11/27 00:14:49;;;;;;;2.50;0.40;;;4.50;99.90;;;;;;6240789;22;20060;-62
2021/11/27 00:17:15;;;;;;;1.35;0.30;;;4.40;99.90;;;;;;6237883;23;20015;-61
2021/11/27 00:19:40;;;;;;;5.60;0.98;;;4.40;99.90;;;;;;6241574;22;20131;-62
2021/11/27 00:22:06;;;;;;;3.92;0.65;;;4.40;99.90;;;;;;6238622;22;20151;-63
2021/11/27 00:24:32;;;;;;;5.75;0.40;;;4.40;99.90;;;;;;6241470;22;20016;-61
2021/11/27 00:26:57;;;;;;;3.03;0.22;;;4.50;99.90;;;;;;6240285;22;20099;-62
2021/11/27 00:29:23;;;;;;;5.88;0.47;;;4.50;99.90;;;;;;6241649;22;20000;-62
2021/11/27 00:31:50;;;;;;;5.53;0.55;;;4.50;99.90;;;;;;6240770;22;20063;-61
2021/11/27 00:34:16;;;;;;;3.30;0.40;;;4.40;99.90;;;;;;6241794;22;20007;-61
2021/11/27 00:36:42;;;;;;;5.38;0.35;;;4.50;99.90;;;;;;6241356;22;20008;-62
2021/11/27 00:39:08;;;;;;;1.85;0.20;;;4.50;99.90;;;;;;6240569;22;20063;-62
2021/11/27 00:41:35;;;;;;;0.63;0.32;;;4.50;99.90;;;;;;6241269;22;20055;-61
2021/11/27 00:44:01;;;;;;;3.70;0.30;;;4.50;99.90;;;;;;6240495;22;20035;-63
2021/11/27 00:46:27;;;;;;;8.68;0.95;;;4.50;99.90;;;;;;6241268;22;20012;-62
2021/11/27 00:48:52;;;;;;;3.90;0.50;;;4.50;99.90;;;;;;6240415;22;20015;-61
2021/11/27 00:51:21;;;;;;;5.40;0.60;;;4.40;99.90;;;;;;6241328;22;20014;-62
2021/11/27 00:53:47;;;;;;;3.10;0.32;;;4.40;99.90;;;;;;6240750;22;20078;-62
2021/11/27 00:56:14;;;;;;;1.92;0.28;;;4.50;99.90;;;;;;6241317;22;20004;-61
2021/11/27 00:58:41;;;;;;;4.82;0.45;;;4.50;99.90;;;;;;6241512;22;20016;-61
2021/11/27 01:01:12;;;;;;;4.93;0.30;;;4.50;99.90;;;;;;6240730;22;20000;-61
2021/11/27 01:03:41;;;;;;;1.25;0.52;;;4.40;99.90;;;;;;6241146;22;20172;-61
2021/11/27 01:06:08;;;;;;;2.17;0.45;;;4.40;99.90;;;;;;6239315;22;20008;-62
2021/11/27 01:08:34;;;;;;;3.92;0.52;;;4.40;99.90;;;;;;6240813;22;20107;-62
2021/11/27 01:11:10;;;;;;;3.10;0.57;;;4.40;99.90;;;;;;6239699;22;20008;-62
2021/11/27 01:13:38;;;;;;;4.60;0.32;;;4.40;99.90;;;;;;6240904;22;20020;-61
2021/11/27 01:16:05;;;;;;;1.00;0.10;;;4.30;99.90;;;;;;6239673;22;20036;-62
2021/11/27 01:18:31;;;;;;;2.72;0.28;;;4.30;99.90;;;;;;6239012;23;20004;-61
2021/11/27 01:21:02;;;;;;;8.63;0.82;;;4.30;99.90;;;;;;6239519;22;20015;-62
2021/11/27 01:23:29;;;;;;;1.30;0.13;;;4.20;99.90;;;;;;6240793;22;20362;-61
2021/11/27 01:25:55;;;;;;;1.40;0.40;;;4.20;99.90;;;;;;6239412;22;20015;-62
2021/11/27 01:28:23;;;;;;;7.88;0.77;;;4.20;99.90;;;;;;6240777;22;20043;-62
2021/11/27 01:30:52;;;;;;;3.33;0.20;;;4.20;99.90;;;;;;6239958;22;20016;-61
2021/11/27 01:33:19;;;;;;;3.30;0.80;;;4.10;99.90;;;;;;6240469;22;20346;-62
2021/11/27 01:35:45;;;;;;;0.65;0.22;;;4.10;99.90;;;;;;6240648;22;20570;-62
2021/11/27 01:38:11;;;;;;;3.35;0.10;;;4.10;99.90;;;;;;6239770;22;20008;-61
2021/11/27 01:40:37;;;;;;;3.10;0.20;;;4.20;99.90;;;;;;6239119;23;20008;-62
2021/11/27 01:43:03;;;;;;;2.35;0.35;;;4.10;99.90;;;;;;6236479;22;20444;-61
2021/11/27 01:45:29;;;;;;;1.40;0.30;;;4.10;99.90;;;;;;6240457;22;20083;-60
2021/11/27 01:48:07;;;;;;;4.43;0.30;;;4.10;99.90;;;;;;6239727;22;20055;-63
2021/11/27 01:50:37;;;;;;;4.25;0.40;;;4.10;99.90;;;;;;6240643;22;20008;-61
2021/11/27 01:53:04;;;;;;;2.70;0.57;;;4.10;99.90;;;;;;6239517;22;20019;-61
2021/11/27 01:55:30;;;;;;;0.60;0.08;;;4.10;99.90;;;;;;6240148;22;20079;-61
2021/11/27 01:57:56;;;;;;;3.60;0.20;;;4.10;99.90;;;;;;6239548;22;20345;-61
2021/11/27 02:00:26;;;;;;;1.23;0.15;;;4.10;99.90;;;;;;6240728;22;20074;-61
2021/11/27 02:02:53;;;;;;;2.65;0.75;;;4.10;99.90;;;;;;6238897;22;20338;-61
2021/11/27 02:05:20;;;;;;;3.80;0.30;;;4.10;99.90;;;;;;6240276;22;20058;-61
2021/11/27 02:07:49;;;;;;;2.42;0.20;;;4.10;99.90;;;;;;6239683;22;20074;-64
2021/11/27 02:10:15;;;;;;;2.50;0.10;;;4.20;99.90;;;;;;6239942;22;20073;-61
2021/11/27 02:12:42;;;;;;;1.70;0.15;;;4.10;99.90;;;;;;6240445;22;20019;-61
2021/11/27 02:15:09;;;;;;;1.35;0.17;;;4.10;99.90;;;;;;6239101;22;20018;-62
2021/11/27 02:17:34;;;;;;;2.88;0.20;;;4.20;99.90;;;;;;6239621;22;20018;-61
2021/11/27 02:20:00;;;;;;;1.25;0.30;;;4.10;99.90;;;;;;6239141;22;20079;-62
2021/11/27 02:22:26;;;;;;;4.30;0.38;;;4.10;99.90;;;;;;6240244;22;20436;-62
2021/11/27 02:24:52;;;;;;;3.78;0.50;;;4.10;99.90;;;;;;6241486;22;20012;-61
2021/11/27 02:27:18;;;;;;;2.08;0.30;;;4.20;99.90;;;;;;6241975;22;20020;-61
2021/11/27 02:29:45;;;;;;;3.67;0.43;;;4.20;99.90;;;;;;6242550;22;20097;-61
2021/11/27 02:32:10;;;;;;;2.33;0.28;;;4.20;99.90;;;;;;6241258;22;20086;-62
2021/11/27 02:34:37;;;;;;;7.70;1.05;;;4.10;99.90;;;;;;6242233;22;20081;-62
2021/11/27 02:37:06;;;;;;;2.75;0.52;;;4.10;99.90;;;;;;6241025;22;20035;-61
2021/11/27 02:39:34;;;;;;;1.75;0.30;;;4.20;99.90;;;;;;6242256;22;20032;-61
2021/11/27 02:42:00;;;;;;;4.25;0.38;;;4.10;99.90;;;;;;6241097;22;20019;-61
2021/11/27 02:44:29;;;;;;;1.98;0.43;;;4.10;99.90;;;;;;6240370;23;20756;-63
2021/11/27 02:46:55;;;;;;;5.38;0.50;;;4.10;99.90;;;;;;6240799;22;20544;-63
2021/11/27 02:49:21;;;;;;;2.33;0.22;;;4.10;99.90;;;;;;6241915;22;20008;-62
2021/11/27 02:51:47;;;;;;;5.07;0.15;;;4.10;99.90;;;;;;6240954;22;20050;-62
2021/11/27 02:54:13;;;;;;;3.10;0.22;;;4.10;99.90;;;;;;6240407;23;20526;-60
2021/11/27 02:56:39;;;;;;;3.28;0.30;;;4.10;99.90;;;;;;6240278;23;20031;-63
2021/11/27 02:59:15;;;;;;;4.65;0.20;;;4.10;99.90;;;;;;6241208;22;20008;-61
2021/11/27 03:01:44;;;;;;;2.50;0.17;;;4.10;99.90;;;;;;6240308;22;20354;-62
2021/11/27 03:04:11;;;;;;;2.50;0.10;;;4.10;99.90;;;;;;6239243;23;20035;-61
2021/11/27 03:06:38;;;;;;;5.97;0.50;;;4.10;99.90;;;;;;6241883;22;20044;-62
2021/11/27 03:09:06;;;;;;;3.05;0.22;;;4.10;99.90;;;;;;6240832;22;20386;-61
2021/11/27 03:11:32;;;;;;;0.95;0.20;;;4.00;99.90;;;;;;6242184;22;20502;-62
2021/11/27 03:13:58;;;;;;;2.08;0.40;;;4.00;99.90;;;;;;6241151;22;20016;-61
2021/11/27 03:16:29;;;;;;;1.60;0.30;;;4.00;99.90;;;;;;6241205;22;20004;-63
2021/11/27 03:18:55;;;;;;;4.28;0.38;;;4.00;99.90;;;;;;6240879;22;20089;-61
2021/11/27 03:21:22;;;;;;;0.20;0.10;;;4.00;99.90;;;;;;6242105;22;20334;-62
2021/11/27 03:23:49;;;;;;;4.03;0.30;;;4.00;99.90;;;;;;6240838;22;20008;-62
2021/11/27 03:26:15;;;;;;;1.60;0.20;;;4.00;99.90;;;;;;6241589;22;20039;-61
2021/11/27 03:28:42;;;;;;;3.63;0.35;;;4.00;99.90;;;;;;6241779;22;20015;-61
2021/11/27 03:31:08;;;;;;;3.88;0.40;;;4.00;99.90;;;;;;6240485;22;20038;-61
2021/11/27 03:33:34;;;;;;;1.48;0.10;;;4.00;99.90;;;;;;6241903;22;20012;-61
2021/11/27 03:35:59;;;;;;;3.30;0.10;;;4.00;99.90;;;;;;6238471;22;20011;-62
2021/11/27 03:38:25;;;;;;;3.08;0.10;;;4.00;99.90;;;;;;6241862;22;20002;-62
2021/11/27 03:40:52;;;;;;;2.05;0.20;;;4.00;99.90;;;;;;6240477;22;20508;-62
2021/11/27 03:43:17;;;;;;;0.95;0.28;;;4.00;99.90;;;;;;6241461;22;20012;-62
2021/11/27 03:45:43;;;;;;;0.80;0.20;;;4.00;99.90;;;;;;6241202;22;20069;-62
2021/11/27 03:48:24;;;;;;;2.55;0.28;;;4.00;99.90;;;;;;6240680;22;20069;-60
2021/11/27 03:50:51;;;;;;;2.33;0.20;;;4.00;99.90;;;;;;6240886;22;20047;-62
2021/11/27 03:53:28;;;;;;;0.20;0.00;;;4.00;99.90;;;;;;6241699;22;20190;-62
2021/11/27 03:55:54;;;;;;;0.50;0.00;;;4.00;99.90;;;;;;6240104;22;20016;-61
2021/11/27 03:58:19;;;;;;;2.45;0.65;;;4.00;99.90;;;;;;6241563;22;20077;-61
2021/11/27 04:00:46;;;;;;;4.03;0.15;;;3.90;99.90;;;;;;6241579;22;20009;-61
2021/11/27 04:03:14;;;;;;;1.38;0.00;;;3.90;99.90;;;;;;6240895;22;20342;-61
2021/11/27 04:05:43;;;;;;;0.43;0.10;;;4.00;99.90;;;;;;6241236;22;20012;-60
2021/11/27 04:08:08;;;;;;;0.80;0.10;;;4.00;99.90;;;;;;6240300;22;20016;-61
2021/11/27 04:10:34;;;;;;;2.45;0.10;;;3.90;99.90;;;;;;6239395;23;20038;-61
2021/11/27 04:13:00;;;;;;;2.42;0.00;;;3.90;99.90;;;;;;6240408;22;20013;-61
2021/11/27 04:15:27;;;;;;;3.28;0.17;;;3.90;99.90;;;;;;6241355;22;20008;-61
2021/11/27 04:17:53;;;;;;;0.47;0.00;;;3.80;99.90;;;;;;6240507;22;20012;-61
2021/11/27 04:20:19;;;;;;;1.25;0.10;;;3.90;99.90;;;;;;6239629;23;20008;-61
2021/11/27 04:22:44;;;;;;;1.13;0.13;;;3.90;99.90;;;;;;6241466;22;20036;-61
2021/11/27 04:25:10;;;;;;;3.20;0.00;;;3.80;99.90;;;;;;6239717;22;20049;-61
2021/11/27 04:27:37;;;;;;;1.70;0.08;;;3.80;99.90;;;;;;6241214;22;20434;-62
2021/11/27 04:30:10;;;;;;;1.17;0.28;;;3.90;99.90;;;;;;6240408;22;20008;-63
2021/11/27 04:32:35;;;;;;;2.25;0.73;;;3.90;99.90;;;;;;6241203;22;20015;-61
2021/11/27 04:35:02;;;;;;;3.67;0.50;;;3.90;99.90;;;;;;6240055;22;20067;-61
2021/11/27 04:37:27;;;;;;;2.70;0.20;;;3.90;99.90;;;;;;6241089;22;20518;-61
2021/11/27 04:39:53;;;;;;;0.38;0.10;;;3.90;99.90;;;;;;6239924;22;20036;-62
2021/11/27 04:42:19;;;;;;;0.25;0.00;;;3.90;99.90;;;;;;6240803;22;20050;-61
2021/11/27 04:44:45;;;;;;;0.57;0.17;;;3.90;99.90;;;;;;6241126;22;20008;-62
2021/11/27 04:47:11;;;;;;;1.45;0.57;;;3.80;99.90;;;;;;6238917;22;20015;-61
2021/11/27 04:49:37;;;;;;;0.22;0.10;;;3.90;99.90;;;;;;6241227;22;20004;-61
2021/11/27 04:52:03;;;;;;;0.03;0.00;;;3.80;99.90;;;;;;6239760;22;20012;-62
2021/11/27 04:54:29;;;;;;;6.70;0.35;;;3.90;99.90;;;;;;6240794;22;20039;-61
2021/11/27 04:56:54;;;;;;;0.50;0.20;;;3.90;99.90;;;;;;6239636;22;20012;-61
2021/11/27 04:59:22;;;;;;;0.85;0.10;;;3.90;99.90;;;;;;6241153;22;20427;-61
2021/11/27 05:01:48;;;;;;;1.13;0.20;;;3.90;99.90;;;;;;6238057;22;20016;-63
2021/11/27 05:04:14;;;;;;;1.48;0.20;;;4.00;99.90;;;;;;6240655;22;20350;-61
2021/11/27 05:06:40;;;;;;;1.77;0.10;;;4.00;99.90;;;;;;6240455;22;20005;-61
2021/11/27 05:09:06;;;;;;;1.55;0.20;;;4.00;99.90;;;;;;6239494;22;20012;-60
2021/11/27 05:11:31;;;;;;;4.45;0.10;;;4.00;99.90;;;;;;6238858;22;20012;-62
2021/11/27 05:13:57;;;;;;;1.27;0.20;;;4.00;99.90;;;;;;6239259;22;20743;-62
2021/11/27 05:16:24;;;;;;;1.15;0.60;;;4.00;99.90;;;;;;6240501;22;20004;-61
2021/11/27 05:18:50;;;;;;;1.45;0.32;;;4.10;99.90;;;;;;6239733;22;20004;-61
2021/11/27 05:21:15;;;;;;;1.08;0.50;;;4.10;99.90;;;;;;6240508;22;20491;-63
2021/11/27 05:23:42;;;;;;;0.55;0.40;;;4.10;99.90;;;;;;6239811;22;20329;-62
2021/11/27 05:26:07;;;;;;;2.75;0.17;;;4.10;99.90;;;;;;6238732;22;20112;-60
2021/11/27 05:28:33;;;;;;;1.30;0.28;;;4.10;99.90;;;;;;6240830;22;20027;-62
2021/11/27 05:30:59;;;;;;;1.02;0.25;;;4.10;99.90;;;;;;6239717;22;20099;-61
2021/11/27 05:36:20;;;;;;;3.33;0.28;;;4.10;99.90;;;;;;6155541;22;20013;-61
2021/11/27 05:38:47;;;;;;;2.38;0.30;;;4.10;99.90;;;;;;6240856;22;20096;-61
2021/11/27 05:41:15;;;;;;;0.93;0.43;;;4.10;99.90;;;;;;6238768;22;20008;-61
2021/11/27 05:43:41;;;;;;;3.60;0.20;;;4.10;99.90;;;;;;6240678;22;20020;-61
2021/11/27 05:46:08;;;;;;;1.08;0.20;;;4.20;99.90;;;;;;6239033;22;21443;-61
2021/11/27 05:48:35;;;;;;;2.05;0.60;;;4.20;99.90;;;;;;6240838;22;20015;-61
2021/11/27 05:51:01;;;;;;;0.63;0.22;;;4.10;99.90;;;;;;6239536;22;20047;-61
2021/11/27 05:53:27;;;;;;;1.38;0.25;;;4.10;99.90;;;;;;6240396;22;20012;-63
2021/11/27 05:55:52;;;;;;;2.10;0.52;;;4.10;99.90;;;;;;6238400;22;20065;-62
2021/11/27 05:58:20;;;;;;;1.48;0.40;;;4.10;99.90;;;;;;6240368;22;20015;-61
2021/11/27 06:00:46;;;;;;;0.70;0.30;;;4.10;99.90;;;;;;6239803;22;20035;-61
2021/11/27 06:03:12;;;;;;;5.50;0.60;;;4.10;99.90;;;;;;6238805;22;20315;-64
2021/11/27 06:05:38;;;;;;;4.00;0.60;;;4.10;99.90;;;;;;6239538;22;20020;-62
2021/11/27 06:08:04;;;;;;;3.45;0.50;;;4.10;99.90;;;;;;6239276;22;20375;-61
2021/11/27 06:10:30;;;;;;;2.55;0.40;;;4.10;99.90;;;;;;6240333;22;20008;-62
2021/11/27 06:12:56;;;;;;;0.90;0.35;;;4.10;99.90;;;;;;6239131;22;20035;-62
2021/11/27 06:15:22;;;;;;;0.75;0.15;;;4.10;99.90;;;;;;6240148;22;20498;-61
2021/11/27 06:17:47;;;;;;;2.00;0.17;;;4.00;99.90;;;;;;6237658;22;20106;-67
2021/11/27 06:20:13;;;;;;;2.80;0.35;;;4.00;99.90;;;;;;6240628;22;20107;-64
2021/11/27 06:22:39;;;;;;;1.17;0.40;;;3.90;99.90;;;;;;6240305;22;20509;-62
2021/11/27 06:25:06;;;;;;;3.17;1.10;;;3.90;99.90;;;;;;6239427;22;20016;-61
2021/11/27 06:27:32;;;;;;;1.33;0.35;;;3.90;99.90;;;;;;6240061;22;20016;-61
2021/11/27 06:29:57;;;;;;;10.75;0.55;;;3.90;99.90;;;;;;6239538;22;20024;-61
2021/11/27 06:32:23;;;;;;;3.10;0.30;;;4.00;99.90;;;;;;6239655;22;20004;-62
2021/11/27 06:34:53;;;;;;;2.72;0.52;;;3.90;99.90;;;;;;6239519;22;20446;-60
2021/11/27 06:37:23;;;;;;;1.90;0.40;;;3.90;99.90;;;;;;6239655;22;20450;-62
2021/11/27 06:39:50;;;;;;;3.08;0.75;;;4.00;99.90;;;;;;6239036;22;20009;-62
2021/11/27 06:42:16;;;;;;;1.58;0.47;;;4.00;99.90;;;;;;6239352;22;20015;-61
2021/11/27 06:44:49;;;;;;;2.38;0.35;;;4.00;99.90;;;;;;6240049;22;20012;-61
2021/11/27 06:47:16;;;;;;;0.65;0.20;;;4.00;99.90;;;;;;6238884;22;20039;-62
2021/11/27 06:49:42;;;;;;;3.38;0.50;;;4.00;99.90;;;;;;6240484;22;20009;-61
2021/11/27 06:52:09;;;;;;;4.20;0.50;;;4.00;99.90;;;;;;6239230;22;20040;-61
2021/11/27 06:54:35;;;;;;;1.60;0.30;;;4.00;99.90;;;;;;6240467;22;20004;-61
2021/11/27 06:57:00;;;;;;;2.97;0.50;;;4.10;99.90;;;;;;6239099;22;20047;-62
2021/11/27 06:59:26;;;;;;;3.08;0.50;;;4.00;99.90;;;;;;6240472;22;20005;-62
2021/11/27 07:01:52;;;;;;;5.05;0.98;;;4.00;99.90;;;;;;6238780;22;20031;-62
2021/11/27 07:04:18;;;;;;;2.97;0.57;;;4.00;99.90;;;;;;6240339;22;20464;-61
2021/11/27 07:06:45;;;;;;;1.08;0.50;;;4.00;99.90;;;;;;6239986;22;20020;-61
2021/11/27 07:09:10;;;;;;;5.85;1.70;;;4.00;99.90;;;;;;6239168;22;20489;-62
2021/11/27 07:11:36;;;;;;;1.00;0.30;;;4.00;99.90;;;;;;6241881;22;20042;-61
2021/11/27 07:14:02;;;;;;;2.47;0.50;;;3.90;99.90;;;;;;6240836;22;20342;-61
2021/11/27 07:16:28;;;;;;;2.95;0.60;;;3.90;99.90;;;;;;6240943;22;20012;-61
2021/11/27 07:18:53;;;;;;;3.72;0.40;;;3.90;99.90;;;;;;6240235;22;20015;-62
2021/11/27 07:21:19;;;;;;;2.25;0.60;;;3.90;99.90;;;;;;6240036;22;20382;-62
2021/11/27 07:23:44;;;;;;;1.08;0.52;;;3.90;99.90;;;;;;6241800;22;20012;-61
2021/11/27 07:26:10;;;;;;;2.03;0.50;;;3.90;99.90;;;;;;6240638;22;20686;-61
2021/11/27 07:28:36;;;;;;;0.70;0.30;;;3.90;99.90;;;;;;6241339;22;20012;-62
2021/11/27 07:31:02;;;;;;;2.53;0.40;;;3.90;99.90;;;;;;6240577;22;20013;-62
2021/11/27 07:33:28;;;;;;;0.50;0.30;;;3.90;99.90;;;;;;6242078;22;20346;-61
2021/11/27 07:35:53;;;;;;;4.40;0.80;;;3.90;99.90;;;;;;6240894;22;20008;-62
2021/11/27 07:38:19;;;;;;;3.63;1.02;;;4.00;99.90;;;;;;6242031;22;20011;-61
2021/11/27 07:40:45;;;;;;;3.83;0.65;;;3.90;99.90;;;;;;6242739;22;20016;-61
2021/11/27 07:43:10;;;;;;;4.65;0.38;;;3.90;99.90;;;;;;6239282;22;20058;-62
2021/11/27 07:45:36;;;;;;;1.80;0.40;;;4.00;99.90;;;;;;6237582;22;20020;-71
2021/11/27 07:48:02;;;;;;;1.55;0.50;;;4.00;99.90;;;;;;6239664;22;20016;-72
2021/11/27 07:50:29;;;;;;;1.52;0.45;;;4.00;99.90;;;;;;6238455;23;20016;-70
2021/11/27 07:52:55;;;;;;;1.55;0.35;;;4.00;99.90;;;;;;6238502;22;20095;-71
2021/11/27 07:55:21;;;;;;;2.10;0.28;;;4.00;99.90;;;;;;6238925;23;20661;-71
2021/11/27 07:57:46;;;;;;;3.95;0.35;;;4.00;99.90;;;;;;6240533;22;20382;-71
2021/11/27 08:00:13;;;;;;;1.48;0.30;;;4.00;99.90;;;;;;6238354;22;20703;-71
2021/11/27 08:02:38;;;;;;;0.98;0.30;;;4.00;99.90;;;;;;6241034;22;20017;-71
2021/11/27 08:05:05;;;;;;;3.05;0.90;;;4.00;99.90;;;;;;6238531;22;20008;-70
2021/11/27 08:07:32;;;;;;;2.05;0.28;;;4.00;99.90;;;;;;6238469;23;20012;-71
2021/11/27 08:09:58;;;;;;;6.05;0.88;;;4.00;99.90;;;;;;6240511;22;20319;-71
2021/11/27 08:12:23;;;;;;;0.80;0.32;;;4.00;99.90;;;;;;6239385;23;20016;-72
2021/11/27 08:14:50;;;;;;;2.75;0.40;;;4.00;99.90;;;;;;6239976;22;20016;-72
2021/11/27 08:17:15;;;;;;;3.70;0.30;;;4.00;99.90;;;;;;6241417;22;20004;-71
2021/11/27 08:19:41;;;;;;;0.30;0.10;;;4.10;99.90;;;;;;6238542;23;20016;-71
2021/11/27 08:22:07;;;;;;;2.33;0.20;;;4.10;99.90;;;;;;6238978;22;20453;-71
2021/11/27 08:24:32;;;;;;;2.97;0.40;;;4.10;99.90;;;;;;6240729;22;20035;-71
2021/11/27 08:26:58;;;;;;;2.38;0.30;;;4.00;99.90;;;;;;6238426;22;20008;-72
2021/11/27 08:29:24;;;;;;;1.00;0.20;;;4.00;99.90;;;;;;6238725;23;20373;-72
2021/11/27 08:31:49;;;;;;;2.65;0.40;;;4.00;99.90;;;;;;6239239;22;20016;-71
2021/11/27 08:34:15;;;;;;;5.72;0.50;;;4.10;99.90;;;;;;6238150;22;20008;-72
2021/11/27 08:36:41;;;;;;;2.13;0.30;;;4.00;99.90;;;;;;6237920;23;20019;-71
2021/11/27 08:39:08;;;;;;;3.70;0.30;;;4.00;99.90;;;;;;6234963;22;20051;-71
2021/11/27 08:41:34;;;;;;;0.85;0.25;;;4.00;99.90;;;;;;6237468;23;20008;-72
2021/11/27 08:43:59;;;;;;;0.30;0.20;;;4.00;99.90;;;;;;6236742;22;20504;-71
2021/11/27 08:46:25;;;;;;;0.98;0.20;;;4.00;99.90;;;;;;6239642;22;20012;-71
2021/11/27 08:48:51;;;;;;;0.95;0.20;;;4.00;99.90;;;;;;6237999;22;20016;-70
2021/11/27 08:51:17;;;;;;;2.88;0.57;;;4.00;99.90;;;;;;6237974;23;19996;-71
2021/11/27 08:53:42;;;;;;;0.60;0.28;;;3.90;99.90;;;;;;6239063;22;20020;-71
2021/11/27 08:56:08;;;;;;;1.20;0.70;;;3.90;99.90;;;;;;6237450;22;20349;-71
2021/11/27 08:58:36;;;;;;;1.05;0.55;;;3.80;99.90;;;;;;6239114;23;20495;-72
2021/11/27 09:01:03;;;;;;;3.17;0.45;;;3.90;99.90;;;;;;6238340;22;20087;-71
2021/11/27 09:03:29;;;;;;;1.15;0.22;;;3.90;99.90;;;;;;6240980;22;20004;-71
2021/11/27 09:05:55;;;;;;;2.40;0.50;;;3.80;99.90;;;;;;6235438;22;20384;-71
2021/11/27 09:08:21;;;;;;;3.45;0.50;;;3.90;99.90;;;;;;6238769;23;20050;-69
2021/11/27 09:10:47;;;;;;;2.05;0.30;;;3.80;99.90;;;;;;6237000;23;20031;-71
2021/11/27 09:13:15;;;;;;;1.00;0.40;;;3.80;99.90;;;;;;6237508;22;20074;-71
2021/11/27 09:15:40;;;;;;;1.45;0.50;;;3.80;99.90;;;;;;6240387;22;20012;-70
2021/11/27 09:18:09;;;;;;;3.33;0.85;;;3.80;99.90;;;;;;6238673;22;20508;-70
2021/11/27 09:20:35;;;;;;;2.75;0.82;;;3.80;99.90;;;;;;6240594;23;20060;-68
2021/11/27 09:23:02;;;;;;;2.38;1.02;;;3.80;99.90;;;;;;6242311;22;20074;-70
2021/11/27 09:25:29;;;;;;;8.88;1.83;;;3.90;99.90;;;;;;6241841;22;20015;-69
2021/11/27 09:27:56;;;;;;;5.32;1.85;;;3.80;99.90;;;;;;6240518;22;20031;-70
2021/11/27 09:30:22;;;;;;;8.85;3.00;;;3.80;99.90;;;;;;6239672;22;20004;-70
2021/11/27 09:32:48;;;;;;;5.75;2.78;;;3.80;99.90;;;;;;6239823;22;20023;-71
2021/11/27 09:35:14;;;;;;;7.25;3.25;;;3.80;99.90;;;;;;6237527;23;20052;-71
2021/11/27 09:37:40;;;;;;;7.30;2.35;;;3.80;99.90;;;;;;6240776;22;20087;-71
2021/11/27 09:40:08;;;;;;;6.63;2.17;;;3.90;99.90;;;;;;6239421;22;20023;-72
2021/11/27 09:42:35;;;;;;;6.13;2.67;;;3.90;99.90;;;;;;6240889;22;20091;-71
2021/11/27 09:45:02;;;;;;;6.38;2.85;;;3.90;99.90;;;;;;6237800;22;20031;-70
2021/11/27 09:47:29;;;;;;;5.63;2.08;;;3.90;99.90;;;;;;6240439;22;20012;-70
2021/11/27 09:49:56;;;;;;;5.78;2.17;;;3.90;99.90;;;;;;6238303;22;20020;-71
2021/11/27 09:52:22;;;;;;;5.28;2.20;;;3.90;99.90;;;;;;6239314;23;20063;-71
2021/11/27 09:54:49;;;;;;;10.95;2.30;;;3.90;99.90;;;;;;6239029;22;20018;-70
2021/11/27 09:57:15;;;;;;;6.70;2.30;;;3.80;99.90;;;;;;6237528;23;20004;-70
2021/11/27 09:59:43;;;;;;;9.00;2.60;;;3.90;99.90;;;;;;6239074;23;20421;-70
2021/11/27 10:02:11;;;;;;;5.35;2.15;;;3.80;99.90;;;;;;6238205;22;20016;-71
2021/11/27 10:04:39;;;;;;;10.38;2.97;;;3.80;99.90;;;;;;6240098;22;20130;-70
2021/11/27 10:07:12;;;;;;;8.10;3.22;;;3.90;99.90;;;;;;6237229;22;20146;-71
2021/11/27 10:09:39;;;;;;;9.38;3.15;;;3.90;99.90;;;;;;6238161;23;20004;-71
2021/11/27 10:12:07;;;;;;;10.80;2.70;;;3.90;99.90;;;;;;6239501;22;20008;-71
2021/11/27 10:14:39;;;;;;;11.18;3.35;;;3.90;99.90;;;;;;6237540;22;20004;-70
2021/11/27 10:17:09;;;;;;;13.32;3.90;;;3.90;99.90;;;;;;6239138;22;20020;-70
2021/11/27 10:19:41;;;;;;;9.68;4.53;;;4.00;99.90;;;;;;6234021;23;20012;-70
2021/11/27 10:22:09;;;;;;;14.00;5.13;;;4.10;99.90;;;;;;6237467;22;20450;-70
2021/11/27 10:24:36;;;;;;;13.95;5.35;;;4.10;99.90;;;;;;6238681;22;20446;-70
2021/11/27 10:27:03;;;;;;;16.20;4.95;;;4.20;99.90;;;;;;6236952;22;20016;-70
2021/11/27 10:29:34;;;;;;;17.58;6.13;;;4.20;99.90;;;;;;6238634;22;20345;-70
2021/11/27 10:32:09;;;;;;;20.52;6.32;;;4.10;99.90;;;;;;6237425;22;20012;-70
2021/11/27 10:34:36;;;;;;;20.77;7.10;;;4.10;99.90;;;;;;6233908;22;20008;-70
2021/11/27 10:37:03;;;;;;;13.73;4.85;;;4.20;99.90;;;;;;6236267;22;20066;-70
2021/11/27 10:39:28;;;;;;;16.67;4.65;;;4.30;99.90;;;;;;6237744;22;20446;-70
2021/11/27 10:42:05;;;;;;;18.92;5.20;;;4.30;99.90;;;;;;6234634;22;20088;-72
2021/11/27 10:44:40;;;;;;;20.45;4.65;;;4.40;99.90;;;;;;6238219;22;20012;-71
2021/11/27 10:47:15;;;;;;;20.30;5.18;;;4.30;99.90;;;;;;6237970;22;20015;-71
2021/11/27 10:49:43;;;;;;;14.55;3.50;;;4.40;99.90;;;;;;6238261;23;20010;-71
2021/11/27 10:52:11;;;;;;;15.57;4.22;;;4.40;99.90;;;;;;6238892;22;20066;-70
2021/11/27 10:54:50;;;;;;;17.45;4.13;;;4.40;99.90;;;;;;6239578;22;20006;-70
2021/11/27 10:57:34;;;;;;;13.75;4.13;;;4.50;99.90;;;;;;6237477;23;20008;-70
2021/11/27 11:00:30;;;;;;;14.68;3.03;;;4.50;99.90;;;;;;6237946;23;20058;-70
2021/11/27 11:02:57;;;;;;;20.63;4.32;;;4.60;99.90;;;;;;6238222;22;20070;-70
2021/11/27 11:05:34;;;;;;;13.07;2.50;;;4.70;99.90;;;;;;6239693;23;20000;-69
2021/11/27 11:08:00;;;;;;;12.60;2.58;;;4.70;99.90;;;;;;6207850;23;20525;-67
2021/11/27 11:10:36;;;;;;;10.75;2.63;;;4.70;99.90;;;;;;6212546;23;20095;-69
2021/11/27 11:13:08;;;;;;;12.45;2.55;;;4.70;99.90;;;;;;6237561;22;20353;-70
2021/11/27 11:15:43;;;;;;;16.55;2.40;;;4.80;99.90;;;;;;6237973;23;20028;-69
2021/11/27 11:18:25;;;;;;;7.68;1.98;;;4.80;99.90;;;;;;6237254;23;20442;-70
2021/11/27 11:20:59;;;;;;;16.90;2.85;;;4.70;99.90;;;;;;6210696;23;20012;-69
2021/11/27 11:23:29;;;;;;;14.05;1.90;;;4.80;99.90;;;;;;6210575;23;20004;-70
2021/11/27 11:26:14;;;;;;;;;;;4.80;99.90;;;;;;6212090;23;20024;-70
2021/11/27 11:28:55;;;;;;;14.57;2.08;;;4.80;99.90;;;;;;6237721;23;19911;-70
2021/11/27 11:31:23;;;;;;;17.63;2.63;;;4.70;99.90;;;;;;6235020;23;20008;-70
2021/11/27 11:33:54;;;;;;;11.65;1.88;;;4.70;99.90;;;;;;6238558;22;20016;-70
2021/11/27 11:36:21;;;;;;;11.75;2.20;;;4.80;99.90;;;;;;6238758;22;20036;-70
2021/11/27 11:38:59;;;;;;;9.18;2.63;;;4.90;99.90;;;;;;6239915;22;20016;-70
2021/11/27 11:41:27;;;;;;;17.85;2.15;;;4.90;99.90;;;;;;6239089;22;20012;-70
2021/11/27 11:43:53;;;;;;;16.77;2.15;;;4.80;99.90;;;;;;6236991;22;20054;-70
2021/11/27 11:46:20;;;;;;;8.38;1.33;;;4.80;99.90;;;;;;6238416;23;20015;-70
2021/11/27 11:48:54;;;;;;;14.02;3.20;;;4.80;99.90;;;;;;6239647;22;20051;-71
2021/11/27 11:51:32;;;;;;;5.85;1.45;;;4.80;99.90;;;;;;6239688;22;20032;-69
2021/11/27 11:53:59;;;;;;;4.82;1.52;;;4.80;99.90;;;;;;6236671;22;20063;-69
2021/11/27 11:57:04;;;;;;;9.68;1.73;;;4.80;99.90;;;;;;6238088;23;20375;-69
2021/11/27 11:59:32;;;;;;;9.32;1.42;;;4.90;99.90;;;;;;6239283;22;20039;-70
2021/11/27 12:02:14;;;;;;;6.22;2.20;;;4.80;99.90;;;;;;6239115;22;20008;-70
2021/11/27 12:04:58;;;;;;;13.95;1.95;;;4.80;99.90;;;;;;6237662;22;20069;-69
2021/11/27 12:07:42;;;;;;;4.85;1.25;;;4.80;99.90;;;;;;6239181;22;20035;-70
2021/11/27 12:10:41;;;;;;;5.78;0.77;;;4.70;99.90;;;;;;6232579;22;20027;-70
2021/11/27 12:13:10;;;;;;;4.28;1.25;;;4.60;99.90;;;;;;6224335;22;20027;-70
2021/11/27 12:15:37;;;;;;;8.90;1.10;;;4.60;99.90;;;;;;6234861;23;20091;-70
2021/11/27 12:18:02;;;;;;;8.15;1.42;;;4.60;99.90;;;;;;6236793;22;20437;-70
2021/11/27 12:20:55;;;;;;;9.13;1.35;;;4.60;99.90;;;;;;6237969;22;20454;-69
2021/11/27 12:23:37;;;;;;;6.57;1.00;;;4.60;99.90;;;;;;6227891;22;20008;-70
2021/11/27 12:26:06;;;;;;;6.95;1.95;;;4.60;99.90;;;;;;6236800;22;20043;-70
2021/11/27 12:29:02;;;;;;;8.45;2.47;;;4.60;99.90;;;;;;6238155;22;20393;-70
2021/11/27 12:31:41;;;;;;;11.40;2.22;;;4.60;99.90;;;;;;6237277;22;20043;-72
2021/11/27 12:34:09;;;;;;;6.05;1.90;;;4.50;99.90;;;;;;6236581;22;20086;-70
2021/11/27 12:36:36;;;;;;;7.53;2.60;;;4.50;99.90;;;;;;6239448;22;20012;-71
2021/11/27 12:39:04;;;;;;;8.45;2.20;;;4.50;99.90;;;;;;6237459;22;20008;-72
2021/11/27 12:41:36;;;;;;;9.82;1.88;;;4.40;99.90;;;;;;6238527;22;20058;-70
2021/11/27 12:44:21;;;;;;;14.25;2.38;;;4.30;99.90;;;;;;6235661;22;20054;-71
2021/11/27 12:47:00;;;;;;;6.97;1.73;;;4.30;99.90;;;;;;6236414;23;20327;-70
2021/11/27 12:49:32;;;;;;;7.55;1.48;;;4.20;99.90;;;;;;6237773;22;20039;-70
2021/11/27 12:52:16;;;;;;;15.18;2.72;;;4.20;99.90;;;;;;6237085;22;20446;-71
2021/11/27 12:54:50;;;;;;;13.40;1.95;;;4.10;99.90;;;;;;6235184;22;20527;-70
2021/11/27 12:57:35;;;;;;;5.63;1.77;;;4.10;99.90;;;;;;6237155;23;20508;-70
2021/11/27 13:00:19;;;;;;;4.70;1.15;;;4.00;99.90;;;;;;6236569;22;20024;-70
2021/11/27 13:03:00;;;;;;;6.32;0.60;;;3.90;99.90;;;;;;6239797;22;20781;-70